sensor_id;sensor_type;location;lat;lon;timestamp;temperature;humidity
52973;DHT22;38837;48.916;2.336;2024-01-15T00:00:09;23.10;27.10
52973;DHT22;38837;48.916;2.336;2024-01-15T00:02:11;23.20;27.10
52973;DHT22;38837;48.916;2.336;2024-01-15T00:04:13;23.20;27.00
52973;DHT22;38837;48.916;2.336;2024-01-15T00:06:15;23.30;26.90
52973;DHT22;38837;48.916;2.336;2024-01-15T00:08:17;23.30;26.90
52973;DHT22;38837;48.916;2.336;2024-01-15T00:10:19;23.20;26.90
52973;DHT22;38837;48.916;2.336;2024-01-15T00:12:21;23.10;26.90
52973;DHT22;38837;48.916;2.336;2024-01-15T00:14:23;23.10;27.00
52973;DHT22;38837;48.916;2.336;2024-01-15T00:16:25;23.10;27.00
52973;DHT22;38837;48.916;2.336;2024-01-15T00:18:27;23.10;27.10
52973;DHT22;38837;48.916;2.336;2024-01-15T00:20:29;23.10;27.10
52973;DHT22;38837;48.916;2.336;2024-01-15T00:22:32;23.20;27.10
52973;DHT22;38837;48.916;2.336;2024-01-15T00:24:33;23.20;27.10
52973;DHT22;38837;48.916;2.336;2024-01-15T00:26:35;23.30;27.00
52973;DHT22;38837;48.916;2.336;2024-01-15T00:28:37;23.30;27.00
52973;DHT22;38837;48.916;2.336;2024-01-15T00:30:40;23.30;27.00
52973;DHT22;38837;48.916;2.336;2024-01-15T00:32:41;23.20;26.90
52973;DHT22;38837;48.916;2.336;2024-01-15T00:34:43;23.20;27.00
52973;DHT22;38837;48.916;2.336;2024-01-15T00:36:45;23.10;27.00
52973;DHT22;38837;48.916;2.336;2024-01-15T00:38:47;23.10;27.10
52973;DHT22;38837;48.916;2.336;2024-01-15T00:40:50;23.10;27.10
52973;DHT22;38837;48.916;2.336;2024-01-15T00:42:51;23.10;27.20
52973;DHT22;38837;48.916;2.336;2024-01-15T00:44:53;23.20;27.20
52973;DHT22;38837;48.916;2.336;2024-01-15T00:46:56;23.20;27.10
52973;DHT22;38837;48.916;2.336;2024-01-15T00:48:57;23.20;27.10
52973;DHT22;38837;48.916;2.336;2024-01-15T00:50:59;23.20;27.10
52973;DHT22;38837;48.916;2.336;2024-01-15T00:53:01;23.20;27.00
52973;DHT22;38837;48.916;2.336;2024-01-15T00:55:03;23.20;27.10
52973;DHT22;38837;48.916;2.336;2024-01-15T00:57:05;23.10;27.00
52973;DHT22;38837;48.916;2.336;2024-01-15T00:59:07;23.10;27.10
52973;DHT22;38837;48.916;2.336;2024-01-15T01:01:12;23.10;27.10
52973;DHT22;38837;48.916;2.336;2024-01-15T01:03:14;23.10;27.20
52973;DHT22;38837;48.916;2.336;2024-01-15T01:05:16;23.10;27.20
52973;DHT22;38837;48.916;2.336;2024-01-15T01:07:18;23.20;27.20
52973;DHT22;38837;48.916;2.336;2024-01-15T01:09:21;23.20;27.20
52973;DHT22;38837;48.916;2.336;2024-01-15T01:11:22;23.30;27.20
52973;DHT22;38837;48.916;2.336;2024-01-15T01:13:24;23.30;27.10
52973;DHT22;38837;48.916;2.336;2024-01-15T01:15:26;23.30;27.10
52973;DHT22;38837;48.916;2.336;2024-01-15T01:17:29;23.30;27.00
52973;DHT22;38837;48.916;2.336;2024-01-15T01:19:32;23.30;27.10
52973;DHT22;38837;48.916;2.336;2024-01-15T01:21:34;23.20;27.10
52973;DHT22;38837;48.916;2.336;2024-01-15T01:23:36;23.10;27.10
52973;DHT22;38837;48.916;2.336;2024-01-15T01:25:38;23.10;27.20
52973;DHT22;38837;48.916;2.336;2024-01-15T01:27:40;23.20;27.30
52973;DHT22;38837;48.916;2.336;2024-01-15T01:29:42;23.20;27.20
52973;DHT22;38837;48.916;2.336;2024-01-15T01:31:44;23.20;27.20
52973;DHT22;38837;48.916;2.336;2024-01-15T01:33:47;23.30;27.20
52973;DHT22;38837;48.916;2.336;2024-01-15T01:35:49;23.30;27.20
52973;DHT22;38837;48.916;2.336;2024-01-15T01:37:50;23.30;27.10
52973;DHT22;38837;48.916;2.336;2024-01-15T01:39:52;23.30;27.10
52973;DHT22;38837;48.916;2.336;2024-01-15T01:41:54;23.20;27.10
52973;DHT22;38837;48.916;2.336;2024-01-15T01:43:57;23.20;27.20
52973;DHT22;38837;48.916;2.336;2024-01-15T01:46:00;23.20;27.20
52973;DHT22;38837;48.916;2.336;2024-01-15T01:48:04;23.10;27.30
52973;DHT22;38837;48.916;2.336;2024-01-15T01:50:06;23.10;27.30
52973;DHT22;38837;48.916;2.336;2024-01-15T01:52:09;23.20;27.30
52973;DHT22;38837;48.916;2.336;2024-01-15T01:54:12;23.20;27.30
52973;DHT22;38837;48.916;2.336;2024-01-15T01:56:15;23.30;27.30
52973;DHT22;38837;48.916;2.336;2024-01-15T01:58:18;23.30;27.20
52973;DHT22;38837;48.916;2.336;2024-01-15T02:00:21;23.30;27.20
52973;DHT22;38837;48.916;2.336;2024-01-15T02:02:23;23.30;27.20
52973;DHT22;38837;48.916;2.336;2024-01-15T02:04:26;23.30;27.20
52973;DHT22;38837;48.916;2.336;2024-01-15T02:06:28;23.20;27.20
52973;DHT22;38837;48.916;2.336;2024-01-15T02:08:30;23.20;27.20
52973;DHT22;38837;48.916;2.336;2024-01-15T02:10:32;23.20;27.40
52973;DHT22;38837;48.916;2.336;2024-01-15T02:12:34;23.20;27.40
52973;DHT22;38837;48.916;2.336;2024-01-15T02:14:36;23.20;27.30
52973;DHT22;38837;48.916;2.336;2024-01-15T02:16:38;23.30;27.30
52973;DHT22;38837;48.916;2.336;2024-01-15T02:18:44;23.30;27.30
52973;DHT22;38837;48.916;2.336;2024-01-15T02:20:46;23.30;27.30
52973;DHT22;38837;48.916;2.336;2024-01-15T02:22:48;23.30;27.20
52973;DHT22;38837;48.916;2.336;2024-01-15T02:24:50;23.30;27.20
52973;DHT22;38837;48.916;2.336;2024-01-15T02:26:52;23.30;27.20
52973;DHT22;38837;48.916;2.336;2024-01-15T02:28:54;23.20;27.30
52973;DHT22;38837;48.916;2.336;2024-01-15T02:30:56;23.20;27.30
52973;DHT22;38837;48.916;2.336;2024-01-15T02:32:58;23.20;27.40
52973;DHT22;38837;48.916;2.336;2024-01-15T02:35:00;23.20;27.40
52973;DHT22;38837;48.916;2.336;2024-01-15T02:37:02;23.20;27.40
52973;DHT22;38837;48.916;2.336;2024-01-15T02:39:04;23.30;27.40
52973;DHT22;38837;48.916;2.336;2024-01-15T02:41:06;23.40;27.40
52973;DHT22;38837;48.916;2.336;2024-01-15T02:43:08;23.40;27.30
52973;DHT22;38837;48.916;2.336;2024-01-15T02:45:10;23.30;27.20
52973;DHT22;38837;48.916;2.336;2024-01-15T02:47:12;23.30;27.20
52973;DHT22;38837;48.916;2.336;2024-01-15T02:49:14;23.30;27.30
52973;DHT22;38837;48.916;2.336;2024-01-15T02:51:16;23.20;27.30
52973;DHT22;38837;48.916;2.336;2024-01-15T02:53:18;23.20;27.30
52973;DHT22;38837;48.916;2.336;2024-01-15T02:55:20;23.10;27.40
52973;DHT22;38837;48.916;2.336;2024-01-15T02:57:22;23.20;27.40
52973;DHT22;38837;48.916;2.336;2024-01-15T02:59:24;23.20;27.40
52973;DHT22;38837;48.916;2.336;2024-01-15T03:01:26;23.30;27.40
52973;DHT22;38837;48.916;2.336;2024-01-15T03:03:28;23.30;27.40
52973;DHT22;38837;48.916;2.336;2024-01-15T03:05:30;23.40;27.40
52973;DHT22;38837;48.916;2.336;2024-01-15T03:07:32;23.30;27.30
52973;DHT22;38837;48.916;2.336;2024-01-15T03:09:34;23.30;27.30
52973;DHT22;38837;48.916;2.336;2024-01-15T03:11:39;23.30;27.30
52973;DHT22;38837;48.916;2.336;2024-01-15T03:13:41;23.20;27.30
52973;DHT22;38837;48.916;2.336;2024-01-15T03:15:43;23.20;27.40
52973;DHT22;38837;48.916;2.336;2024-01-15T03:17:45;23.20;27.40
52973;DHT22;38837;48.916;2.336;2024-01-15T03:19:47;23.20;27.50
52973;DHT22;38837;48.916;2.336;2024-01-15T03:21:51;23.30;27.50
52973;DHT22;38837;48.916;2.336;2024-01-15T03:23:53;23.30;27.50
52973;DHT22;38837;48.916;2.336;2024-01-15T03:25:55;23.30;27.50
52973;DHT22;38837;48.916;2.336;2024-01-15T03:27:57;23.30;27.40
52973;DHT22;38837;48.916;2.336;2024-01-15T03:29:59;23.40;27.40
52973;DHT22;38837;48.916;2.336;2024-01-15T03:32:01;23.40;27.40
52973;DHT22;38837;48.916;2.336;2024-01-15T03:34:02;23.30;27.40
52973;DHT22;38837;48.916;2.336;2024-01-15T03:36:05;23.20;27.40
52973;DHT22;38837;48.916;2.336;2024-01-15T03:38:07;23.20;27.40
52973;DHT22;38837;48.916;2.336;2024-01-15T03:40:09;23.20;27.50
52973;DHT22;38837;48.916;2.336;2024-01-15T03:42:11;23.20;27.50
52973;DHT22;38837;48.916;2.336;2024-01-15T03:44:14;23.20;27.50
52973;DHT22;38837;48.916;2.336;2024-01-15T03:46:15;23.30;27.50
52973;DHT22;38837;48.916;2.336;2024-01-15T03:48:17;23.30;27.50
52973;DHT22;38837;48.916;2.336;2024-01-15T03:50:19;23.40;27.50
52973;DHT22;38837;48.916;2.336;2024-01-15T03:52:21;23.40;27.40
52973;DHT22;38837;48.916;2.336;2024-01-15T03:54:23;23.40;27.40
52973;DHT22;38837;48.916;2.336;2024-01-15T03:56:25;23.30;27.40
52973;DHT22;38837;48.916;2.336;2024-01-15T03:58:27;23.30;27.40
52973;DHT22;38837;48.916;2.336;2024-01-15T04:00:29;23.30;27.40
52973;DHT22;38837;48.916;2.336;2024-01-15T04:02:31;23.20;27.50
52973;DHT22;38837;48.916;2.336;2024-01-15T04:04:32;23.30;27.60
52973;DHT22;38837;48.916;2.336;2024-01-15T04:06:35;23.30;27.60
52973;DHT22;38837;48.916;2.336;2024-01-15T04:08:37;23.30;27.60
52973;DHT22;38837;48.916;2.336;2024-01-15T04:10:38;23.40;27.60
52973;DHT22;38837;48.916;2.336;2024-01-15T04:12:40;23.40;27.50
52973;DHT22;38837;48.916;2.336;2024-01-15T04:14:42;23.40;27.50
52973;DHT22;38837;48.916;2.336;2024-01-15T04:16:44;23.40;27.50
52973;DHT22;38837;48.916;2.336;2024-01-15T04:18:46;23.30;27.50
52973;DHT22;38837;48.916;2.336;2024-01-15T04:20:48;23.30;27.50
52973;DHT22;38837;48.916;2.336;2024-01-15T04:22:49;23.30;27.50
52973;DHT22;38837;48.916;2.336;2024-01-15T04:24:51;23.30;27.60
52973;DHT22;38837;48.916;2.336;2024-01-15T04:26:53;23.30;27.60
52973;DHT22;38837;48.916;2.336;2024-01-15T04:28:55;23.30;27.70
52973;DHT22;38837;48.916;2.336;2024-01-15T04:30:57;23.30;27.60
52973;DHT22;38837;48.916;2.336;2024-01-15T04:32:59;23.40;27.60
52973;DHT22;38837;48.916;2.336;2024-01-15T04:35:01;23.40;27.60
52973;DHT22;38837;48.916;2.336;2024-01-15T04:37:03;23.40;27.60
52973;DHT22;38837;48.916;2.336;2024-01-15T04:39:05;23.40;27.50
52973;DHT22;38837;48.916;2.336;2024-01-15T04:41:11;23.40;27.50
52973;DHT22;38837;48.916;2.336;2024-01-15T04:43:13;23.40;27.60
52973;DHT22;38837;48.916;2.336;2024-01-15T04:45:15;23.30;27.60
52973;DHT22;38837;48.916;2.336;2024-01-15T04:47:17;23.30;27.60
52973;DHT22;38837;48.916;2.336;2024-01-15T04:49:19;23.30;27.70
52973;DHT22;38837;48.916;2.336;2024-01-15T04:51:21;23.30;27.70
52973;DHT22;38837;48.916;2.336;2024-01-15T04:53:22;23.30;27.70
52973;DHT22;38837;48.916;2.336;2024-01-15T04:55:24;23.40;27.70
52973;DHT22;38837;48.916;2.336;2024-01-15T04:57:26;23.40;27.70
52973;DHT22;38837;48.916;2.336;2024-01-15T04:59:28;23.40;27.60
52973;DHT22;38837;48.916;2.336;2024-01-15T05:01:33;23.40;27.60
52973;DHT22;38837;48.916;2.336;2024-01-15T05:03:35;23.40;27.60
52973;DHT22;38837;48.916;2.336;2024-01-15T05:05:37;23.40;27.60
52973;DHT22;38837;48.916;2.336;2024-01-15T05:07:39;23.30;27.60
52973;DHT22;38837;48.916;2.336;2024-01-15T05:09:41;23.30;27.70
52973;DHT22;38837;48.916;2.336;2024-01-15T05:11:43;23.30;27.80
52973;DHT22;38837;48.916;2.336;2024-01-15T05:13:45;23.30;27.80
52973;DHT22;38837;48.916;2.336;2024-01-15T05:15:47;23.30;27.70
52973;DHT22;38837;48.916;2.336;2024-01-15T05:17:49;23.40;27.80
52973;DHT22;38837;48.916;2.336;2024-01-15T05:19:51;23.40;27.70
52973;DHT22;38837;48.916;2.336;2024-01-15T05:21:53;23.50;27.70
52973;DHT22;38837;48.916;2.336;2024-01-15T05:23:55;23.40;27.60
52973;DHT22;38837;48.916;2.336;2024-01-15T05:25:57;23.40;27.70
52973;DHT22;38837;48.916;2.336;2024-01-15T05:27:59;23.40;27.70
52973;DHT22;38837;48.916;2.336;2024-01-15T05:30:01;23.30;27.70
52973;DHT22;38837;48.916;2.336;2024-01-15T05:32:03;23.30;27.70
52973;DHT22;38837;48.916;2.336;2024-01-15T05:34:05;23.20;27.80
52973;DHT22;38837;48.916;2.336;2024-01-15T05:36:07;23.30;27.90
52973;DHT22;38837;48.916;2.336;2024-01-15T05:38:09;23.30;27.80
52973;DHT22;38837;48.916;2.336;2024-01-15T05:40:12;23.40;27.80
52973;DHT22;38837;48.916;2.336;2024-01-15T05:42:14;23.40;27.80
52973;DHT22;38837;48.916;2.336;2024-01-15T05:44:16;23.40;27.70
52973;DHT22;38837;48.916;2.336;2024-01-15T05:46:18;23.40;27.70
52973;DHT22;38837;48.916;2.336;2024-01-15T05:48:20;23.40;27.70
52973;DHT22;38837;48.916;2.336;2024-01-15T05:50:22;23.40;27.70
52973;DHT22;38837;48.916;2.336;2024-01-15T05:52:24;23.30;27.70
52973;DHT22;38837;48.916;2.336;2024-01-15T05:54:26;23.30;27.70
52973;DHT22;38837;48.916;2.336;2024-01-15T05:56:28;23.30;27.90
52973;DHT22;38837;48.916;2.336;2024-01-15T05:58:30;23.30;27.90
52973;DHT22;38837;48.916;2.336;2024-01-15T06:00:34;23.30;27.90
52973;DHT22;38837;48.916;2.336;2024-01-15T06:02:38;23.40;27.90
52973;DHT22;38837;48.916;2.336;2024-01-15T06:04:40;23.40;27.90
52973;DHT22;38837;48.916;2.336;2024-01-15T06:06:42;23.40;27.80
52973;DHT22;38837;48.916;2.336;2024-01-15T06:08:44;23.40;27.80
52973;DHT22;38837;48.916;2.336;2024-01-15T06:10:46;23.50;27.80
52973;DHT22;38837;48.916;2.336;2024-01-15T06:12:48;23.40;27.80
52973;DHT22;38837;48.916;2.336;2024-01-15T06:14:50;23.40;27.80
52973;DHT22;38837;48.916;2.336;2024-01-15T06:16:52;23.30;27.80
52973;DHT22;38837;48.916;2.336;2024-01-15T06:18:54;23.30;27.80
52973;DHT22;38837;48.916;2.336;2024-01-15T06:20:56;23.30;27.90
52973;DHT22;38837;48.916;2.336;2024-01-15T06:22:58;23.30;27.90
52973;DHT22;38837;48.916;2.336;2024-01-15T06:25:00;23.40;27.90
52973;DHT22;38837;48.916;2.336;2024-01-15T06:27:02;23.40;27.90
52973;DHT22;38837;48.916;2.336;2024-01-15T06:29:04;23.50;27.90
52973;DHT22;38837;48.916;2.336;2024-01-15T06:31:07;23.50;27.80
52973;DHT22;38837;48.916;2.336;2024-01-15T06:33:14;23.50;27.80
52973;DHT22;38837;48.916;2.336;2024-01-15T06:35:15;23.40;27.80
52973;DHT22;38837;48.916;2.336;2024-01-15T06:37:20;23.40;27.80
52973;DHT22;38837;48.916;2.336;2024-01-15T06:39:22;23.30;27.90
52973;DHT22;38837;48.916;2.336;2024-01-15T06:41:24;23.30;27.90
52973;DHT22;38837;48.916;2.336;2024-01-15T06:43:27;23.30;27.90
52973;DHT22;38837;48.916;2.336;2024-01-15T06:45:29;23.40;28.00
52973;DHT22;38837;48.916;2.336;2024-01-15T06:47:31;23.40;27.90
52973;DHT22;38837;48.916;2.336;2024-01-15T06:49:34;23.40;27.90
52973;DHT22;38837;48.916;2.336;2024-01-15T06:51:36;23.50;27.90
52973;DHT22;38837;48.916;2.336;2024-01-15T06:53:38;23.60;27.80
52973;DHT22;38837;48.916;2.336;2024-01-15T06:55:40;23.50;27.80
52973;DHT22;38837;48.916;2.336;2024-01-15T06:57:42;23.50;27.80
52973;DHT22;38837;48.916;2.336;2024-01-15T06:59:44;23.40;27.80
52973;DHT22;38837;48.916;2.336;2024-01-15T07:01:46;23.40;27.90
52973;DHT22;38837;48.916;2.336;2024-01-15T07:03:48;23.30;27.90
52973;DHT22;38837;48.916;2.336;2024-01-15T07:05:50;23.30;28.00
52973;DHT22;38837;48.916;2.336;2024-01-15T07:07:52;23.40;28.00
52973;DHT22;38837;48.916;2.336;2024-01-15T07:09:54;23.40;28.00
52973;DHT22;38837;48.916;2.336;2024-01-15T07:11:56;23.40;28.00
52973;DHT22;38837;48.916;2.336;2024-01-15T07:13:59;23.50;27.90
52973;DHT22;38837;48.916;2.336;2024-01-15T07:16:01;23.50;27.90
52973;DHT22;38837;48.916;2.336;2024-01-15T07:18:03;23.50;27.80
52973;DHT22;38837;48.916;2.336;2024-01-15T07:20:09;23.50;27.90
52973;DHT22;38837;48.916;2.336;2024-01-15T07:22:11;23.40;27.90
52973;DHT22;38837;48.916;2.336;2024-01-15T07:24:13;23.30;27.90
52973;DHT22;38837;48.916;2.336;2024-01-15T07:26:15;23.30;28.00
52973;DHT22;38837;48.916;2.336;2024-01-15T07:28:17;23.30;28.50
52973;DHT22;38837;48.916;2.336;2024-01-15T07:30:19;23.30;28.10
52973;DHT22;38837;48.916;2.336;2024-01-15T07:32:23;23.40;28.10
52973;DHT22;38837;48.916;2.336;2024-01-15T07:34:25;23.40;28.00
52973;DHT22;38837;48.916;2.336;2024-01-15T07:36:27;23.50;28.00
52973;DHT22;38837;48.916;2.336;2024-01-15T07:38:29;23.50;28.00
52973;DHT22;38837;48.916;2.336;2024-01-15T07:40:31;23.40;27.90
52973;DHT22;38837;48.916;2.336;2024-01-15T07:42:33;23.40;27.90
52973;DHT22;38837;48.916;2.336;2024-01-15T07:44:36;23.40;28.00
52973;DHT22;38837;48.916;2.336;2024-01-15T07:46:38;23.40;28.00
52973;DHT22;38837;48.916;2.336;2024-01-15T07:48:40;23.30;28.00
52973;DHT22;38837;48.916;2.336;2024-01-15T07:50:43;23.30;28.10
52973;DHT22;38837;48.916;2.336;2024-01-15T07:52:44;23.40;28.10
52973;DHT22;38837;48.916;2.336;2024-01-15T07:54:46;23.40;28.10
52973;DHT22;38837;48.916;2.336;2024-01-15T07:56:55;23.40;28.00
52973;DHT22;38837;48.916;2.336;2024-01-15T07:58:57;23.50;28.00
52973;DHT22;38837;48.916;2.336;2024-01-15T08:00:59;23.50;28.00
52973;DHT22;38837;48.916;2.336;2024-01-15T08:03:01;23.50;27.90
52973;DHT22;38837;48.916;2.336;2024-01-15T08:05:04;23.50;28.00
52973;DHT22;38837;48.916;2.336;2024-01-15T08:07:07;23.40;28.00
52973;DHT22;38837;48.916;2.336;2024-01-15T08:09:09;23.40;28.00
52973;DHT22;38837;48.916;2.336;2024-01-15T08:11:11;23.40;28.10
52973;DHT22;38837;48.916;2.336;2024-01-15T08:13:13;23.40;28.10
52973;DHT22;38837;48.916;2.336;2024-01-15T08:15:15;23.40;28.20
52973;DHT22;38837;48.916;2.336;2024-01-15T08:17:17;23.40;28.10
52973;DHT22;38837;48.916;2.336;2024-01-15T08:19:19;23.40;28.10
52973;DHT22;38837;48.916;2.336;2024-01-15T08:21:24;23.50;28.10
52973;DHT22;38837;48.916;2.336;2024-01-15T08:23:25;23.50;28.00
52973;DHT22;38837;48.916;2.336;2024-01-15T08:25:30;23.50;28.00
52973;DHT22;38837;48.916;2.336;2024-01-15T08:27:32;23.50;28.00
52973;DHT22;38837;48.916;2.336;2024-01-15T08:29:34;23.50;28.00
52973;DHT22;38837;48.916;2.336;2024-01-15T08:31:36;23.50;28.10
52973;DHT22;38837;48.916;2.336;2024-01-15T08:33:38;23.40;28.10
52973;DHT22;38837;48.916;2.336;2024-01-15T08:35:40;23.30;28.10
52973;DHT22;38837;48.916;2.336;2024-01-15T08:37:42;23.40;28.60
52973;DHT22;38837;48.916;2.336;2024-01-15T08:39:44;23.50;28.20
52973;DHT22;38837;48.916;2.336;2024-01-15T08:41:46;23.50;28.20
52973;DHT22;38837;48.916;2.336;2024-01-15T08:43:48;23.50;28.10
52973;DHT22;38837;48.916;2.336;2024-01-15T08:45:50;23.60;28.50
52973;DHT22;38837;48.916;2.336;2024-01-15T08:47:52;23.60;28.00
52973;DHT22;38837;48.916;2.336;2024-01-15T08:49:54;23.50;28.00
52973;DHT22;38837;48.916;2.336;2024-01-15T08:51:56;23.50;28.00
52973;DHT22;38837;48.916;2.336;2024-01-15T08:53:58;23.50;28.00
52973;DHT22;38837;48.916;2.336;2024-01-15T08:56:00;23.50;28.10
52973;DHT22;38837;48.916;2.336;2024-01-15T08:58:02;23.40;28.10
52973;DHT22;38837;48.916;2.336;2024-01-15T09:00:05;23.40;28.20
52973;DHT22;38837;48.916;2.336;2024-01-15T09:02:10;23.50;28.20
52973;DHT22;38837;48.916;2.336;2024-01-15T09:04:12;23.60;28.20
52973;DHT22;38837;48.916;2.336;2024-01-15T09:06:14;23.60;28.10
52973;DHT22;38837;48.916;2.336;2024-01-15T09:08:16;23.60;28.10
52973;DHT22;38837;48.916;2.336;2024-01-15T09:10:18;23.60;28.10
52973;DHT22;38837;48.916;2.336;2024-01-15T09:12:20;23.60;28.00
52973;DHT22;38837;48.916;2.336;2024-01-15T09:14:24;23.50;28.10
52973;DHT22;38837;48.916;2.336;2024-01-15T09:16:37;23.50;28.10
52973;DHT22;38837;48.916;2.336;2024-01-15T09:18:39;23.40;28.10
52973;DHT22;38837;48.916;2.336;2024-01-15T09:20:41;23.40;28.20
52973;DHT22;38837;48.916;2.336;2024-01-15T09:22:43;23.40;28.20
52973;DHT22;38837;48.916;2.336;2024-01-15T09:24:46;23.60;28.20
52973;DHT22;38837;48.916;2.336;2024-01-15T09:26:48;23.50;28.10
52973;DHT22;38837;48.916;2.336;2024-01-15T09:28:50;23.50;28.10
52973;DHT22;38837;48.916;2.336;2024-01-15T09:30:52;23.60;28.00
52973;DHT22;38837;48.916;2.336;2024-01-15T09:32:54;23.60;28.00
52973;DHT22;38837;48.916;2.336;2024-01-15T09:34:56;23.60;28.00
52973;DHT22;38837;48.916;2.336;2024-01-15T09:36:58;23.60;28.00
52973;DHT22;38837;48.916;2.336;2024-01-15T09:39:01;23.50;28.00
52973;DHT22;38837;48.916;2.336;2024-01-15T09:41:03;23.50;28.00
52973;DHT22;38837;48.916;2.336;2024-01-15T09:43:05;23.50;28.10
52973;DHT22;38837;48.916;2.336;2024-01-15T09:45:08;23.50;28.50
52973;DHT22;38837;48.916;2.336;2024-01-15T09:47:11;23.60;28.10
52973;DHT22;38837;48.916;2.336;2024-01-15T09:49:14;23.60;28.00
52973;DHT22;38837;48.916;2.336;2024-01-15T09:51:16;23.70;28.00
52973;DHT22;38837;48.916;2.336;2024-01-15T09:53:18;23.70;28.00
52973;DHT22;38837;48.916;2.336;2024-01-15T09:55:22;23.70;27.90
52973;DHT22;38837;48.916;2.336;2024-01-15T09:57:24;23.70;27.90
52973;DHT22;38837;48.916;2.336;2024-01-15T09:59:27;23.70;27.90
52973;DHT22;38837;48.916;2.336;2024-01-15T10:01:31;23.60;27.90
52973;DHT22;38837;48.916;2.336;2024-01-15T10:03:33;23.60;28.00
52973;DHT22;38837;48.916;2.336;2024-01-15T10:05:35;23.50;28.00
52973;DHT22;38837;48.916;2.336;2024-01-15T10:07:37;23.60;28.10
52973;DHT22;38837;48.916;2.336;2024-01-15T10:09:41;23.60;28.00
52973;DHT22;38837;48.916;2.336;2024-01-15T10:11:44;23.70;28.00
52973;DHT22;38837;48.916;2.336;2024-01-15T10:13:46;23.70;28.00
52973;DHT22;38837;48.916;2.336;2024-01-15T10:15:51;23.80;27.90
52973;DHT22;38837;48.916;2.336;2024-01-15T10:17:54;23.80;27.90
52973;DHT22;38837;48.916;2.336;2024-01-15T10:19:57;23.80;27.80
52973;DHT22;38837;48.916;2.336;2024-01-15T10:21:59;23.80;28.30
52973;DHT22;38837;48.916;2.336;2024-01-15T10:24:03;23.70;27.80
52973;DHT22;38837;48.916;2.336;2024-01-15T10:26:05;23.70;27.90
52973;DHT22;38837;48.916;2.336;2024-01-15T10:28:07;23.60;27.90
52973;DHT22;38837;48.916;2.336;2024-01-15T10:30:09;23.60;28.00
52973;DHT22;38837;48.916;2.336;2024-01-15T10:32:12;23.70;28.00
52973;DHT22;38837;48.916;2.336;2024-01-15T10:34:14;23.70;27.90
52973;DHT22;38837;48.916;2.336;2024-01-15T10:36:17;23.70;27.90
52973;DHT22;38837;48.916;2.336;2024-01-15T10:38:21;23.80;27.90
52973;DHT22;38837;48.916;2.336;2024-01-15T10:40:27;23.80;27.80
52973;DHT22;38837;48.916;2.336;2024-01-15T10:42:29;23.80;27.80
52973;DHT22;38837;48.916;2.336;2024-01-15T10:44:31;23.80;27.70
52973;DHT22;38837;48.916;2.336;2024-01-15T10:46:33;23.70;27.70
52973;DHT22;38837;48.916;2.336;2024-01-15T10:48:36;23.60;27.80
52973;DHT22;38837;48.916;2.336;2024-01-15T10:50:38;23.60;27.80
52973;DHT22;38837;48.916;2.336;2024-01-15T10:52:41;23.60;27.80
52973;DHT22;38837;48.916;2.336;2024-01-15T10:54:43;23.70;27.80
52973;DHT22;38837;48.916;2.336;2024-01-15T10:56:47;23.70;27.80
52973;DHT22;38837;48.916;2.336;2024-01-15T10:58:50;23.70;27.70
52973;DHT22;38837;48.916;2.336;2024-01-15T11:00:52;23.80;27.50
52973;DHT22;38837;48.916;2.336;2024-01-15T11:02:54;23.70;27.60
52973;DHT22;38837;48.916;2.336;2024-01-15T11:04:59;23.70;27.50
52973;DHT22;38837;48.916;2.336;2024-01-15T11:07:02;23.70;27.50
52973;DHT22;38837;48.916;2.336;2024-01-15T11:09:05;23.60;27.50
52973;DHT22;38837;48.916;2.336;2024-01-15T11:11:09;23.60;27.40
52973;DHT22;38837;48.916;2.336;2024-01-15T11:15:30;23.50;27.60
52973;DHT22;38837;48.916;2.336;2024-01-15T11:17:58;23.60;27.50
52973;DHT22;38837;48.916;2.336;2024-01-15T11:20:06;23.70;27.50
52973;DHT22;38837;48.916;2.336;2024-01-15T11:22:09;23.70;27.40
52973;DHT22;38837;48.916;2.336;2024-01-15T11:24:35;23.70;27.40
52973;DHT22;38837;48.916;2.336;2024-01-15T11:26:44;23.60;26.90
52973;DHT22;38837;48.916;2.336;2024-01-15T11:28:49;23.50;27.30
52973;DHT22;38837;48.916;2.336;2024-01-15T11:30:53;23.60;27.40
52973;DHT22;38837;48.916;2.336;2024-01-15T11:32:55;23.60;27.40
52973;DHT22;38837;48.916;2.336;2024-01-15T11:35:02;23.50;27.20
52973;DHT22;38837;48.916;2.336;2024-01-15T11:37:05;23.50;27.30
52973;DHT22;38837;48.916;2.336;2024-01-15T11:41:34;23.60;27.30
52973;DHT22;38837;48.916;2.336;2024-01-15T11:43:37;23.70;27.30
52973;DHT22;38837;48.916;2.336;2024-01-15T11:45:39;23.70;27.20
52973;DHT22;38837;48.916;2.336;2024-01-15T11:50:01;23.30;27.30
52973;DHT22;38837;48.916;2.336;2024-01-15T11:52:05;23.40;27.30
52973;DHT22;38837;48.916;2.336;2024-01-15T11:54:10;23.40;27.30
52973;DHT22;38837;48.916;2.336;2024-01-15T11:56:16;23.40;26.80
52973;DHT22;38837;48.916;2.336;2024-01-15T11:58:18;23.30;27.30
52973;DHT22;38837;48.916;2.336;2024-01-15T12:00:24;23.30;27.30
52973;DHT22;38837;48.916;2.336;2024-01-15T12:02:26;23.30;27.20
52973;DHT22;38837;48.916;2.336;2024-01-15T12:04:27;23.40;27.30
52973;DHT22;38837;48.916;2.336;2024-01-15T12:06:29;23.60;27.20
52973;DHT22;38837;48.916;2.336;2024-01-15T12:08:31;23.40;27.10
52973;DHT22;38837;48.916;2.336;2024-01-15T12:10:33;23.40;27.20
52973;DHT22;38837;48.916;2.336;2024-01-15T12:14:54;23.40;27.20
52973;DHT22;38837;48.916;2.336;2024-01-15T12:16:55;23.50;27.10
52973;DHT22;38837;48.916;2.336;2024-01-15T12:18:57;23.30;26.80
52973;DHT22;38837;48.916;2.336;2024-01-15T12:21:00;23.30;27.20
52973;DHT22;38837;48.916;2.336;2024-01-15T12:23:02;23.30;27.20
52973;DHT22;38837;48.916;2.336;2024-01-15T12:25:10;23.30;27.20
52973;DHT22;38837;48.916;2.336;2024-01-15T12:27:12;23.40;27.10
52973;DHT22;38837;48.916;2.336;2024-01-15T12:29:14;23.60;27.00
52973;DHT22;38837;48.916;2.336;2024-01-15T12:31:19;23.70;27.00
52973;DHT22;38837;48.916;2.336;2024-01-15T12:33:22;23.70;27.30
52973;DHT22;38837;48.916;2.336;2024-01-15T12:35:24;23.60;26.60
52973;DHT22;38837;48.916;2.336;2024-01-15T12:37:29;23.60;26.90
52973;DHT22;38837;48.916;2.336;2024-01-15T12:39:31;23.50;26.80
52973;DHT22;38837;48.916;2.336;2024-01-15T12:41:35;23.40;26.90
52973;DHT22;38837;48.916;2.336;2024-01-15T12:43:37;23.40;26.80
52973;DHT22;38837;48.916;2.336;2024-01-15T12:45:40;23.30;26.80
52973;DHT22;38837;48.916;2.336;2024-01-15T12:47:42;23.50;27.00
52973;DHT22;38837;48.916;2.336;2024-01-15T12:49:47;23.60;27.00
52973;DHT22;38837;48.916;2.336;2024-01-15T12:51:53;23.60;26.90
52973;DHT22;38837;48.916;2.336;2024-01-15T12:53:55;23.70;26.90
52973;DHT22;38837;48.916;2.336;2024-01-15T12:55:57;23.80;26.80
52973;DHT22;38837;48.916;2.336;2024-01-15T12:57:59;23.70;26.80
52973;DHT22;38837;48.916;2.336;2024-01-15T13:00:01;23.70;26.80
52973;DHT22;38837;48.916;2.336;2024-01-15T13:02:05;23.60;26.70